createdAt,value
2023-03-14T00:01:12.520Z,2.17
2023-03-14T00:03:38.714Z,1.87
2023-03-14T00:06:06.239Z,2.17
2023-03-14T00:08:32.510Z,2.10
2023-03-14T00:11:07.035Z,1.90
2023-03-14T00:13:33.143Z,1.80
2023-03-14T00:16:18.297Z,1.90
2023-03-14T00:18:44.689Z,2.27
2023-03-14T00:21:12.028Z,2.30
2023-03-14T00:23:40.538Z,4.20
2023-03-14T00:26:15.337Z,1.70
2023-03-14T00:28:42.685Z,1.70
2023-03-14T00:31:12.209Z,1.40
2023-03-14T00:33:40.349Z,1.40
2023-03-14T00:36:09.595Z,1.40
2023-03-14T00:38:38.547Z,1.33
2023-03-14T00:41:07.877Z,1.30
2023-03-14T00:43:34.173Z,1.10
2023-03-14T00:46:00.889Z,0.80
2023-03-14T00:48:27.802Z,1.10
2023-03-14T00:50:54.512Z,0.80
2023-03-14T00:53:20.660Z,1.20
2023-03-14T00:55:47.232Z,1.00
2023-03-14T00:58:15.216Z,0.90
2023-03-14T01:00:42.507Z,0.93
2023-03-14T01:03:10.813Z,1.03
2023-03-14T01:05:37.558Z,1.03
2023-03-14T01:08:03.952Z,1.17
2023-03-14T01:10:30.801Z,0.70
2023-03-14T01:12:57.912Z,0.60
2023-03-14T01:15:24.561Z,0.60
2023-03-14T01:17:50.677Z,0.70
2023-03-14T01:20:18.468Z,0.50
2023-03-14T01:22:44.941Z,0.70
2023-03-14T01:25:13.922Z,0.60
2023-03-14T01:27:40.386Z,0.57
2023-03-14T01:30:08.356Z,0.67
2023-03-14T01:32:35.258Z,0.70
2023-03-14T01:35:01.921Z,0.50
2023-03-14T01:37:28.302Z,0.70
2023-03-14T01:39:54.711Z,0.60
2023-03-14T01:42:21.175Z,0.50
2023-03-14T01:45:01.772Z,0.50
2023-03-14T01:47:28.626Z,0.60
2023-03-14T01:50:07.252Z,0.67
2023-03-14T01:52:42.109Z,0.70
2023-03-14T01:55:21.568Z,1.10
2023-03-14T01:57:56.141Z,0.90
2023-03-14T02:00:23.560Z,1.10
2023-03-14T02:02:59.251Z,1.10
2023-03-14T02:05:32.914Z,0.90
2023-03-14T02:08:10.248Z,0.93
2023-03-14T02:10:48.347Z,1.00
2023-03-14T02:13:18.735Z,1.10
2023-03-14T02:16:21.505Z,0.80
2023-03-14T02:19:18.638Z,1.20
2023-03-14T02:22:13.333Z,1.10
2023-03-14T02:25:22.161Z,1.17
2023-03-14T02:27:49.018Z,1.20
2023-03-14T02:30:27.624Z,1.30
2023-03-14T02:33:17.727Z,1.70
2023-03-14T02:35:56.247Z,1.70
2023-03-14T02:38:33.981Z,2.00
2023-03-14T02:41:02.411Z,1.87
2023-03-14T02:43:32.548Z,2.07
2023-03-14T02:46:04.114Z,1.80
2023-03-14T02:48:40.235Z,2.10
2023-03-14T02:51:07.183Z,2.20
2023-03-14T02:53:35.198Z,2.07
2023-03-14T02:56:07.377Z,2.50
2023-03-14T02:58:34.993Z,2.30
2023-03-14T03:01:09.697Z,2.50
2023-03-14T03:03:37.642Z,2.60
2023-03-14T03:06:03.951Z,2.60
2023-03-14T03:08:31.451Z,2.50
2023-03-14T03:10:59.605Z,2.50
2023-03-14T03:13:28.423Z,2.60
2023-03-14T03:15:56.448Z,2.40
2023-03-14T03:18:22.899Z,2.70
2023-03-14T03:20:49.015Z,2.60
2023-03-14T03:23:16.392Z,2.70
2023-03-14T03:25:42.775Z,2.47
2023-03-14T03:28:09.527Z,2.73
2023-03-14T03:30:39.917Z,2.73
2023-03-14T03:33:06.783Z,2.83
2023-03-14T03:35:34.436Z,2.30
2023-03-14T03:38:01.023Z,3.20
2023-03-14T03:40:27.832Z,2.87
2023-03-14T03:42:54.751Z,3.00
2023-03-14T03:45:21.602Z,3.10
2023-03-14T03:47:53.157Z,2.77
2023-03-14T03:50:19.552Z,2.77
2023-03-14T03:52:46.040Z,2.97
2023-03-14T03:55:12.557Z,3.17
2023-03-14T03:57:39.022Z,3.30
2023-03-14T04:00:06.776Z,2.90
2023-03-14T04:02:40.897Z,2.67
2023-03-14T04:05:09.521Z,3.00
2023-03-14T04:07:37.206Z,3.17
2023-03-14T04:10:04.921Z,2.80
2023-03-14T04:12:41.113Z,3.10
2023-03-14T04:15:11.334Z,3.80
2023-03-14T04:17:41.509Z,3.50
2023-03-14T04:20:10.986Z,3.40
2023-03-14T04:22:42.829Z,3.63
2023-03-14T04:25:09.923Z,3.50
2023-03-14T04:27:41.555Z,3.13
2023-03-14T04:30:16.268Z,3.43
2023-03-14T04:33:03.165Z,4.00
2023-03-14T04:35:31.964Z,3.50
2023-03-14T04:38:03.063Z,3.87
2023-03-14T04:40:31.131Z,4.03
2023-03-14T04:43:02.059Z,3.60
2023-03-14T04:45:28.506Z,3.40
2023-03-14T04:47:57.308Z,3.57
2023-03-14T04:50:23.681Z,3.43
2023-03-14T04:52:50.214Z,3.43
2023-03-14T04:55:16.913Z,3.90
2023-03-14T04:57:43.634Z,3.60
2023-03-14T05:00:10.820Z,3.67
2023-03-14T05:02:46.954Z,4.00
2023-03-14T05:05:30.663Z,3.63
2023-03-14T05:08:15.659Z,4.47
2023-03-14T05:11:03.455Z,4.33
2023-03-14T05:13:45.788Z,4.13
2023-03-14T05:16:27.186Z,4.17
2023-03-14T05:19:14.192Z,3.87
2023-03-14T05:21:41.003Z,3.70
2023-03-14T05:24:16.204Z,3.10
2023-03-14T05:26:51.210Z,3.77
2023-03-14T05:29:38.618Z,3.53
2023-03-14T05:32:26.324Z,3.50
2023-03-14T05:35:11.030Z,3.20
2023-03-14T05:38:00.487Z,3.50
2023-03-14T05:40:58.004Z,3.83
2023-03-14T05:43:53.024Z,3.37
2023-03-14T05:46:40.047Z,3.30
2023-03-14T05:49:35.918Z,3.60
2023-03-14T05:52:22.923Z,4.10
2023-03-14T05:55:00.469Z,3.13
2023-03-14T05:57:50.926Z,3.77
2023-03-14T06:00:34.623Z,3.30
2023-03-14T06:03:23.858Z,3.77
2023-03-14T06:05:51.259Z,3.07
2023-03-14T06:08:19.025Z,3.33
2023-03-14T06:10:46.252Z,3.30
2023-03-14T06:13:13.191Z,3.10
2023-03-14T06:15:39.512Z,3.13
2023-03-14T06:18:06.067Z,3.03
2023-03-14T06:20:36.978Z,3.30
2023-03-14T06:23:03.963Z,3.00
2023-03-14T06:25:33.296Z,3.20
2023-03-14T06:28:00.389Z,3.23
2023-03-14T06:30:26.895Z,3.67
2023-03-14T06:32:55.808Z,3.53
2023-03-14T06:35:23.254Z,3.77
2023-03-14T06:37:49.980Z,3.33
2023-03-14T06:40:18.543Z,3.27
2023-03-14T06:42:50.765Z,3.70
2023-03-14T06:45:17.975Z,4.10
2023-03-14T06:47:44.794Z,3.20
2023-03-14T06:50:11.422Z,2.50
2023-03-14T06:52:41.423Z,2.87
2023-03-14T06:55:08.977Z,2.83
2023-03-14T06:57:36.530Z,2.40
2023-03-14T07:00:05.121Z,2.70
2023-03-14T07:02:42.307Z,2.40
2023-03-14T07:05:17.783Z,2.50
2023-03-14T07:07:44.793Z,2.27
2023-03-14T07:10:11.106Z,2.73
2023-03-14T07:12:37.474Z,2.67
2023-03-14T07:15:17.448Z,2.50
2023-03-14T07:17:44.590Z,2.30
2023-03-14T07:20:11.129Z,2.43
2023-03-14T07:22:37.624Z,2.50
2023-03-14T07:25:04.331Z,2.30
2023-03-14T07:27:30.804Z,2.30
2023-03-14T07:29:56.969Z,2.43
2023-03-14T07:32:23.490Z,2.70
2023-03-14T07:34:49.597Z,2.30
2023-03-14T07:37:16.042Z,2.73
2023-03-14T07:39:42.160Z,2.70
2023-03-14T07:42:14.857Z,3.07
2023-03-14T07:44:57.651Z,3.10
2023-03-14T07:47:24.111Z,3.47
2023-03-14T07:49:50.348Z,3.33
2023-03-14T07:52:16.838Z,3.67
2023-03-14T07:54:43.035Z,2.70
2023-03-14T07:57:09.443Z,3.27
2023-03-14T07:59:36.273Z,2.90
2023-03-14T08:02:07.502Z,2.27
2023-03-14T08:04:33.727Z,2.63
2023-03-14T08:07:00.144Z,2.50
2023-03-14T08:09:26.326Z,2.57
2023-03-14T08:11:52.740Z,2.53
2023-03-14T08:14:18.897Z,2.50
2023-03-14T08:16:45.440Z,2.83
2023-03-14T08:19:11.704Z,2.73
2023-03-14T08:21:38.158Z,2.57
2023-03-14T08:24:04.376Z,2.13
2023-03-14T08:26:30.830Z,1.87
2023-03-14T08:28:57.060Z,1.70
2023-03-14T08:31:23.903Z,1.87
2023-03-14T08:33:52.358Z,1.87
2023-03-14T08:36:23.265Z,1.73
2023-03-14T08:38:50.427Z,1.90
2023-03-14T08:41:16.980Z,2.07
2023-03-14T08:43:43.242Z,2.03
2023-03-14T08:46:09.789Z,2.17
2023-03-14T08:48:36.076Z,2.00
2023-03-14T08:51:07.602Z,2.13
2023-03-14T08:53:34.051Z,1.97
2023-03-14T08:56:00.697Z,2.07
2023-03-14T08:58:27.491Z,2.10
2023-03-14T09:00:53.960Z,1.93
2023-03-14T09:03:20.280Z,1.90
2023-03-14T09:05:46.750Z,1.93
2023-03-14T09:08:12.952Z,2.00
2023-03-14T09:10:39.657Z,2.23
2023-03-14T09:13:06.098Z,1.80
2023-03-14T09:15:32.767Z,1.70
2023-03-14T09:17:59.476Z,1.90
2023-03-14T09:20:25.935Z,2.00
2023-03-14T09:22:52.057Z,1.87
2023-03-14T09:25:18.496Z,1.80
2023-03-14T09:27:44.673Z,2.07
2023-03-14T09:30:11.490Z,1.63
2023-03-14T09:32:38.306Z,1.87
2023-03-14T09:35:05.060Z,1.77
2023-03-14T09:37:31.305Z,2.10
2023-03-14T09:39:57.694Z,2.00
2023-03-14T09:42:27.959Z,1.93
2023-03-14T09:45:00.393Z,2.07
2023-03-14T09:47:28.256Z,2.33
2023-03-14T09:49:54.725Z,2.07
2023-03-14T09:52:31.164Z,1.77
2023-03-14T09:55:10.262Z,1.63
2023-03-14T09:57:36.884Z,1.77
2023-03-14T10:00:18.167Z,2.03
2023-03-14T10:02:53.335Z,2.00
2023-03-14T10:05:23.043Z,2.00
2023-03-14T10:07:49.380Z,1.90
2023-03-14T10:10:21.280Z,1.70
2023-03-14T10:12:55.949Z,1.57
2023-03-14T10:15:30.199Z,1.97
2023-03-14T10:17:59.528Z,2.13
2023-03-14T10:20:33.356Z,1.90
2023-03-14T10:23:05.850Z,1.80
2023-03-14T10:25:35.338Z,1.60
2023-03-14T10:28:04.468Z,1.70
2023-03-14T10:30:44.997Z,1.90
2023-03-14T10:33:19.791Z,1.70
2023-03-14T10:35:52.428Z,1.77
2023-03-14T10:38:19.150Z,2.00
2023-03-14T10:40:53.153Z,1.70
2023-03-14T10:43:30.897Z,2.00
2023-03-14T10:46:17.567Z,1.93
2023-03-14T10:49:06.748Z,2.20
2023-03-14T10:51:33.305Z,1.87
2023-03-14T10:54:04.296Z,1.80
2023-03-14T10:56:36.969Z,2.00
2023-03-14T10:59:07.453Z,2.03
2023-03-14T11:02:04.963Z,1.93
2023-03-14T11:05:04.658Z,1.90
2023-03-14T11:07:42.989Z,1.80
2023-03-14T11:10:35.717Z,1.90
2023-03-14T11:13:28.832Z,2.37
2023-03-14T11:16:21.049Z,2.47
2023-03-14T11:18:50.661Z,2.57
2023-03-14T11:21:19.945Z,2.03
2023-03-14T11:23:53.572Z,2.00
2023-03-14T11:26:49.357Z,2.10
2023-03-14T11:29:33.748Z,1.80
2023-03-14T11:32:04.287Z,2.13
2023-03-14T11:34:42.882Z,2.17
2023-03-14T11:37:39.529Z,2.00
2023-03-14T11:40:16.890Z,2.00
2023-03-14T11:42:46.605Z,1.50
2023-03-14T11:45:35.674Z,1.87
2023-03-14T11:48:20.247Z,1.80
2023-03-14T11:50:52.247Z,1.87
2023-03-14T11:53:40.872Z,2.10
2023-03-14T11:56:28.208Z,2.10
2023-03-14T11:59:27.782Z,2.23
2023-03-14T12:01:54.324Z,1.83
2023-03-14T12:04:31.742Z,1.30
2023-03-14T12:07:03.939Z,1.60
2023-03-14T12:09:31.001Z,1.90
2023-03-14T12:12:02.582Z,1.50
2023-03-14T12:14:32.368Z,1.93
2023-03-14T12:17:18.656Z,1.77
2023-03-14T12:19:45.185Z,1.00
2023-03-14T12:22:26.529Z,1.30
2023-03-14T12:25:10.936Z,1.07
2023-03-14T12:28:02.495Z,0.80
2023-03-14T12:30:34.463Z,1.00
2023-03-14T12:33:10.321Z,0.80
2023-03-14T12:35:45.505Z,0.70
2023-03-14T12:38:36.593Z,0.73
2023-03-14T12:41:18.038Z,0.70
2023-03-14T12:43:44.804Z,0.60
2023-03-14T12:46:27.791Z,0.70
2023-03-14T12:49:04.621Z,0.70
2023-03-14T12:51:39.813Z,0.57
2023-03-14T12:54:39.178Z,0.77
2023-03-14T12:57:15.495Z,0.77
2023-03-14T12:59:52.301Z,1.50
2023-03-14T13:02:49.105Z,1.70
2023-03-14T13:05:19.951Z,1.40
2023-03-14T13:07:49.361Z,1.40
2023-03-14T13:10:39.481Z,1.20
2023-03-14T13:13:23.359Z,1.47
2023-03-14T13:15:58.857Z,1.27
2023-03-14T13:18:34.567Z,1.10
2023-03-14T13:21:14.052Z,1.10
2023-03-14T13:23:40.512Z,1.13
2023-03-14T13:26:14.223Z,1.10
2023-03-14T13:28:41.994Z,1.03
2023-03-14T13:31:23.950Z,1.10
2023-03-14T13:34:01.949Z,1.33
2023-03-14T13:36:29.002Z,1.37
2023-03-14T13:39:00.646Z,1.10
2023-03-14T13:41:28.656Z,1.20
2023-03-14T13:44:09.026Z,1.20
2023-03-14T13:46:39.037Z,1.13
2023-03-14T13:49:09.915Z,1.10
2023-03-14T13:51:39.951Z,1.37
2023-03-14T13:54:18.332Z,1.20
2023-03-14T13:56:45.376Z,1.10
2023-03-14T13:59:29.638Z,1.20
2023-03-14T14:01:58.449Z,1.30
2023-03-14T14:04:27.149Z,1.13
2023-03-14T14:06:58.976Z,1.10
2023-03-14T14:09:36.166Z,1.00
2023-03-14T14:12:17.880Z,1.07
2023-03-14T14:15:06.830Z,1.17
2023-03-14T14:17:44.261Z,1.30
2023-03-14T14:20:34.411Z,1.10
2023-03-14T14:23:08.010Z,0.87
2023-03-14T14:25:34.612Z,0.70
2023-03-14T14:28:17.478Z,0.87
2023-03-14T14:30:44.305Z,1.00
2023-03-14T14:33:18.898Z,1.37
2023-03-14T14:36:00.701Z,1.20
2023-03-14T14:38:28.885Z,1.70
2023-03-14T14:41:01.367Z,1.97
2023-03-14T14:43:31.003Z,1.90
2023-03-14T14:46:02.188Z,1.90
2023-03-14T14:48:30.934Z,1.83
2023-03-14T14:51:01.223Z,1.87
2023-03-14T14:53:41.440Z,2.20
2023-03-14T14:56:22.573Z,2.63
2023-03-14T14:58:50.180Z,2.33
2023-03-14T15:01:23.498Z,2.47
2023-03-14T15:03:53.274Z,1.87
2023-03-14T15:06:20.883Z,2.20
2023-03-14T15:08:48.875Z,3.03
2023-03-14T15:11:23.094Z,2.77
2023-03-14T15:13:51.107Z,2.60
2023-03-14T15:16:21.006Z,4.53
2023-03-14T15:18:58.302Z,3.50
2023-03-14T15:21:26.738Z,3.40
2023-03-14T15:23:53.623Z,3.47
2023-03-14T15:26:27.938Z,3.70
2023-03-14T15:28:54.746Z,3.77
2023-03-14T15:31:24.578Z,3.47
2023-03-14T15:33:51.360Z,4.23
2023-03-14T15:36:25.748Z,4.07
2023-03-14T15:38:53.495Z,3.63
2023-03-14T15:41:20.793Z,3.40
2023-03-14T15:43:48.458Z,3.20
2023-03-14T15:46:17.607Z,3.17
2023-03-14T15:48:45.526Z,3.00
2023-03-14T15:51:12.397Z,4.10
2023-03-14T15:53:39.498Z,3.53
2023-03-14T15:56:08.420Z,3.17
2023-03-14T15:58:35.450Z,3.47
2023-03-14T16:01:03.004Z,3.50
2023-03-14T16:03:30.033Z,3.63
2023-03-14T16:05:56.883Z,3.17
2023-03-14T16:08:26.057Z,4.13
2023-03-14T16:10:53.050Z,3.50
2023-03-14T16:13:19.869Z,3.13
2023-03-14T16:15:58.236Z,3.20
2023-03-14T16:18:27.357Z,2.47
2023-03-14T16:20:59.581Z,2.33
2023-03-14T16:23:27.417Z,2.40
2023-03-14T16:25:54.197Z,2.23
2023-03-14T16:28:21.418Z,2.73
2023-03-14T16:30:47.989Z,2.37
2023-03-14T16:33:15.999Z,2.77
2023-03-14T16:35:54.041Z,2.20
2023-03-14T16:38:22.695Z,2.77
2023-03-14T16:41:04.140Z,3.00
2023-03-14T16:43:31.336Z,4.13
2023-03-14T16:45:59.356Z,3.00
2023-03-14T16:48:27.447Z,3.40
2023-03-14T16:50:54.272Z,3.17
2023-03-14T16:53:22.027Z,2.97
2023-03-14T16:55:50.379Z,2.93
2023-03-14T16:58:17.740Z,3.07
2023-03-14T17:00:45.828Z,3.27
2023-03-14T17:03:12.966Z,3.43
2023-03-14T17:05:45.415Z,3.30
2023-03-14T17:08:12.592Z,5.07
2023-03-14T17:10:39.987Z,5.43
2023-03-14T17:13:06.666Z,5.67
2023-03-14T17:15:33.578Z,5.20
2023-03-14T17:18:02.884Z,3.47
2023-03-14T17:20:31.723Z,3.00
2023-03-14T17:22:58.634Z,2.83
2023-03-14T17:25:25.512Z,2.57
2023-03-14T17:27:52.489Z,2.33
2023-03-14T17:30:19.251Z,2.10
2023-03-14T17:32:46.233Z,1.50
2023-03-14T17:35:12.821Z,2.00
2023-03-14T17:37:40.504Z,19.23
2023-03-14T17:40:09.419Z,7.77
2023-03-14T17:42:36.545Z,38.07
2023-03-14T17:45:03.643Z,18.87
2023-03-14T17:47:30.621Z,8.37
2023-03-14T17:49:57.173Z,2.80
2023-03-14T17:52:24.173Z,3.60
2023-03-14T17:54:50.794Z,3.77
2023-03-14T17:57:17.828Z,5.50
2023-03-14T17:59:44.508Z,6.13
2023-03-14T18:02:12.133Z,5.50
2023-03-14T18:04:39.107Z,6.60
2023-03-14T18:07:06.234Z,5.00
2023-03-14T18:09:32.978Z,3.67
2023-03-14T18:12:07.785Z,4.27
2023-03-14T18:14:36.693Z,4.30
2023-03-14T18:17:05.125Z,4.80
2023-03-14T18:19:32.017Z,4.30
2023-03-14T18:21:58.974Z,5.90
2023-03-14T18:24:27.775Z,5.80
2023-03-14T18:26:55.900Z,3.90
2023-03-14T18:29:22.660Z,4.47
2023-03-14T18:31:49.988Z,4.33
2023-03-14T18:34:16.713Z,4.57
2023-03-14T18:36:43.654Z,4.30
2023-03-14T18:39:10.154Z,5.20
2023-03-14T18:41:40.497Z,6.50
2023-03-14T18:44:07.162Z,5.27
2023-03-14T18:46:34.114Z,5.60
2023-03-14T18:49:03.682Z,4.70
2023-03-14T18:51:34.046Z,4.47
2023-03-14T18:54:10.301Z,5.30
2023-03-14T18:56:40.035Z,5.30
2023-03-14T18:59:08.987Z,6.17
2023-03-14T19:01:36.654Z,4.97
2023-03-14T19:04:04.364Z,5.90
2023-03-14T19:06:32.271Z,5.30
2023-03-14T19:08:59.734Z,4.90
2023-03-14T19:11:26.716Z,4.43
2023-03-14T19:13:56.451Z,4.80
2023-03-14T19:16:24.147Z,4.50
2023-03-14T19:18:51.762Z,4.27
2023-03-14T19:21:34.844Z,3.80
2023-03-14T19:24:02.715Z,3.50
2023-03-14T19:26:32.381Z,3.90
2023-03-14T19:28:59.837Z,2.40
2023-03-14T19:31:27.413Z,1.50
2023-03-14T19:33:54.314Z,1.50
2023-03-14T19:36:29.591Z,1.00
2023-03-14T19:38:56.937Z,1.00
2023-03-14T19:41:28.261Z,1.03
2023-03-14T19:43:54.809Z,0.90
2023-03-14T19:46:22.811Z,0.63
2023-03-14T19:48:54.598Z,0.73
2023-03-14T19:51:22.723Z,0.67
2023-03-14T19:53:50.234Z,0.57
2023-03-14T19:56:20.136Z,0.70
2023-03-14T19:58:46.828Z,0.80
2023-03-14T20:01:14.159Z,0.63
2023-03-14T20:03:40.763Z,0.43
2023-03-14T20:06:11.345Z,0.70
2023-03-14T20:08:38.516Z,0.60
2023-03-14T20:11:07.894Z,0.60
2023-03-14T20:13:34.896Z,0.40
2023-03-14T20:16:06.632Z,0.60
2023-03-14T20:18:33.401Z,0.30
2023-03-14T20:21:00.114Z,0.53
2023-03-14T20:23:26.859Z,0.70
2023-03-14T20:25:55.431Z,0.93
2023-03-14T20:28:21.977Z,0.70
2023-03-14T20:30:48.887Z,0.90
2023-03-14T20:33:17.898Z,0.93
2023-03-14T20:35:54.711Z,0.60
2023-03-14T20:38:23.710Z,0.50
2023-03-14T20:40:50.749Z,0.63
2023-03-14T20:43:17.232Z,0.40
2023-03-14T20:45:46.494Z,0.60
2023-03-14T20:48:12.813Z,0.80
2023-03-14T20:50:39.554Z,0.60
2023-03-14T20:53:06.144Z,0.57
2023-03-14T20:55:33.648Z,0.50
2023-03-14T20:58:00.783Z,0.60
2023-03-14T21:00:29.631Z,0.70
2023-03-14T21:02:56.074Z,0.70
2023-03-14T21:05:24.001Z,0.40
2023-03-14T21:07:52.538Z,0.90
2023-03-14T21:10:20.687Z,0.80
2023-03-14T21:12:47.042Z,0.73
2023-03-14T21:15:14.510Z,0.60
2023-03-14T21:17:42.011Z,0.50
2023-03-14T21:20:12.500Z,0.63
2023-03-14T21:22:40.193Z,0.70
2023-03-14T21:25:07.042Z,0.77
2023-03-14T21:27:33.562Z,0.40
2023-03-14T21:30:00.758Z,0.60
2023-03-14T21:32:27.491Z,0.70
2023-03-14T21:34:54.205Z,0.77
2023-03-14T21:37:21.790Z,1.00
2023-03-14T21:39:49.636Z,1.20
2023-03-14T21:42:16.123Z,1.20
2023-03-14T21:44:48.197Z,1.13
2023-03-14T21:47:16.106Z,1.00
2023-03-14T21:49:44.325Z,1.20
2023-03-14T21:52:13.016Z,1.47
2023-03-14T21:54:42.245Z,1.30
2023-03-14T21:57:09.441Z,1.53
2023-03-14T21:59:37.704Z,1.57
2023-03-14T22:02:07.131Z,1.47
2023-03-14T22:04:34.523Z,1.40
2023-03-14T22:07:06.138Z,1.50
2023-03-14T22:09:33.656Z,1.67
2023-03-14T22:12:00.205Z,1.47
2023-03-14T22:14:26.995Z,1.50
2023-03-14T22:16:53.952Z,1.30
2023-03-14T22:19:21.629Z,1.60
2023-03-14T22:21:48.335Z,1.70
2023-03-14T22:24:15.404Z,1.37
2023-03-14T22:26:42.358Z,1.70
2023-03-14T22:29:08.940Z,1.80
2023-03-14T22:31:35.833Z,2.03
2023-03-14T22:34:02.544Z,1.50
2023-03-14T22:36:28.729Z,1.67
2023-03-14T22:38:55.097Z,1.40
2023-03-14T22:41:21.232Z,1.40
2023-03-14T22:43:49.241Z,1.40
2023-03-14T22:46:15.392Z,1.70
2023-03-14T22:48:41.986Z,1.43
2023-03-14T22:51:10.286Z,1.50
2023-03-14T22:53:38.270Z,1.50
2023-03-14T22:56:07.466Z,1.63
2023-03-14T22:58:34.484Z,2.07
2023-03-14T23:01:01.271Z,2.00
2023-03-14T23:03:28.172Z,1.93
2023-03-14T23:05:54.754Z,2.33
2023-03-14T23:08:21.544Z,2.03
2023-03-14T23:10:47.819Z,1.80
2023-03-14T23:13:14.623Z,1.80
2023-03-14T23:15:42.410Z,2.07
2023-03-14T23:18:10.881Z,1.97
2023-03-14T23:20:37.480Z,1.80
2023-03-14T23:23:07.544Z,2.27
2023-03-14T23:25:41.574Z,2.00
2023-03-14T23:28:18.948Z,2.13
2023-03-14T23:30:45.241Z,1.80
2023-03-14T23:33:11.656Z,1.97
2023-03-14T23:35:38.182Z,1.60
2023-03-14T23:38:04.726Z,2.17
2023-03-14T23:40:30.942Z,1.70
2023-03-14T23:42:57.908Z,1.80
2023-03-14T23:45:24.147Z,1.73
2023-03-14T23:47:50.614Z,1.97
2023-03-14T23:50:17.090Z,2.27
2023-03-14T23:52:43.538Z,2.33
2023-03-14T23:55:09.865Z,2.20
2023-03-14T23:57:36.273Z,1.70
